Time;durP1;ratioP1;P1;durP2;ratioP2;P2;SDS_P1;SDS_P2;PMS_P1;PMS_P2;Temp;Humidity;BMP_temperature;BMP_pressure;BME280_temperature;BME280_humidity;BME280_pressure;Samples;Min_cycle;Max_cycle;Signal;HPM_P1;HPM_P2
2021/09/23 00:02:14;;;;;;;;;19.25;17.50;;;;;;;;4994665;28;51209;-63
2021/09/23 00:04:39;;;;;;;;;17.50;16.50;;;;;;;;4992528;28;51899;-63
2021/09/23 00:07:05;;;;;;;;;19.50;16.50;;;;;;;;4982613;28;51392;-64
2021/09/23 00:09:30;;;;;;;;;17.75;16.00;;;;;;;;4987916;28;51061;-64
2021/09/23 00:11:55;;;;;;;;;19.75;16.75;;;;;;;;4994381;28;51293;-64
2021/09/23 00:14:21;;;;;;;;;20.00;19.00;;;;;;;;4997834;28;50998;-64
2021/09/23 00:16:46;;;;;;;;;20.00;20.00;;;;;;;;4992786;28;51208;-63
2021/09/23 00:19:11;;;;;;;;;19.50;17.25;;;;;;;;4993405;28;51006;-64
2021/09/23 00:21:37;;;;;;;;;16.25;16.25;;;;;;;;4992143;28;51681;-64
2021/09/23 00:24:02;;;;;;;;;20.75;19.75;;;;;;;;4993310;28;51831;-64
2021/09/23 00:26:27;;;;;;;;;20.00;20.00;;;;;;;;4993922;28;50869;-64
2021/09/23 00:28:52;;;;;;;;;16.50;15.00;;;;;;;;4992058;28;50940;-64
2021/09/23 00:31:18;;;;;;;;;20.50;19.00;;;;;;;;4994098;28;51162;-63
2021/09/23 00:33:43;;;;;;;;;14.50;14.25;;;;;;;;4992404;28;51776;-63
2021/09/23 00:36:08;;;;;;;;;16.50;16.50;;;;;;;;4993377;28;50917;-65
2021/09/23 00:38:33;;;;;;;;;18.50;15.75;;;;;;;;4994562;28;50929;-63
2021/09/23 00:40:59;;;;;;;;;20.75;19.75;;;;;;;;4993987;28;51130;-63
2021/09/23 00:43:24;;;;;;;;;16.25;16.25;;;;;;;;4993878;28;50959;-64
2021/09/23 00:45:49;;;;;;;;;19.75;19.50;;;;;;;;4993602;28;51273;-63
2021/09/23 00:48:14;;;;;;;;;17.00;15.75;;;;;;;;4992788;28;51161;-64
2021/09/23 00:50:40;;;;;;;;;22.25;20.00;;;;;;;;4993988;28;50946;-65
2021/09/23 00:53:06;;;;;;;;;22.00;19.50;;;;;;;;4992571;28;51061;-64
2021/09/23 00:55:31;;;;;;;;;14.50;14.50;;;;;;;;4988584;28;50938;-64
2021/09/23 00:57:56;;;;;;;;;16.75;16.00;;;;;;;;4983970;28;51046;-64
2021/09/23 01:00:22;;;;;;;;;13.00;13.00;;;;;;;;4993761;28;50948;-64
2021/09/23 01:02:47;;;;;;;;;15.75;15.25;;;;;;;;4993239;28;52163;-64
2021/09/23 01:05:13;;;;;;;;;16.00;15.25;;;;;;;;4980146;28;50960;-64
2021/09/23 01:07:43;;;;;;;;;13.00;13.00;;;;;;;;4992290;28;50976;-65
2021/09/23 01:10:08;;;;;;;;;14.00;13.50;;;;;;;;4993980;28;51164;-64
2021/09/23 01:12:33;;;;;;;;;14.25;13.75;;;;;;;;4993071;28;50956;-64
2021/09/23 01:15:00;;;;;;;;;18.50;17.50;;;;;;;;4993472;28;50882;-64
2021/09/23 01:17:26;;;;;;;;;16.50;15.25;;;;;;;;4993381;28;51113;-64
2021/09/23 01:19:51;;;;;;;;;10.00;9.00;;;;;;;;4992647;28;51507;-64
2021/09/23 01:22:17;;;;;;;;;17.25;17.25;;;;;;;;4992917;28;50993;-64
2021/09/23 01:24:42;;;;;;;;;19.25;17.25;;;;;;;;4993432;28;50997;-64
2021/09/23 01:27:08;;;;;;;;;17.75;16.75;;;;;;;;4993201;28;51230;-64
2021/09/23 01:29:34;;;;;;;;;23.00;21.00;;;;;;;;4992093;28;51022;-64
2021/09/23 01:32:01;;;;;;;;;27.25;25.75;;;;;;;;4993422;28;51062;-65
2021/09/23 01:34:26;;;;;;;;;26.25;23.50;;;;;;;;4977723;28;51206;-65
2021/09/23 01:36:52;;;;;;;;;21.50;20.50;;;;;;;;4990135;28;50870;-65
2021/09/23 01:39:18;;;;;;;;;24.25;23.00;;;;;;;;4992953;28;51047;-64
2021/09/23 01:41:43;;;;;;;;;28.00;24.00;;;;;;;;4992984;28;52094;-64
2021/09/23 01:44:08;;;;;;;;;19.25;18.50;;;;;;;;4993280;28;50813;-63
2021/09/23 01:46:33;;;;;;;;;23.50;22.25;;;;;;;;4993003;28;50860;-64
2021/09/23 01:48:59;;;;;;;;;21.25;19.50;;;;;;;;4991496;28;51003;-63
2021/09/23 01:51:24;;;;;;;;;21.25;19.75;;;;;;;;4992800;28;51710;-63
2021/09/23 01:53:49;;;;;;;;;26.00;25.00;;;;;;;;4988823;28;51295;-64
2021/09/23 01:56:14;;;;;;;;;28.75;26.25;;;;;;;;4989946;28;51047;-64
2021/09/23 01:58:39;;;;;;;;;24.75;23.50;;;;;;;;4983351;28;51141;-64
2021/09/23 02:01:05;;;;;;;;;24.25;22.50;;;;;;;;4986973;28;52430;-64
2021/09/23 02:03:30;;;;;;;;;20.25;19.50;;;;;;;;4991346;28;50939;-64
2021/09/23 02:05:55;;;;;;;;;19.50;18.00;;;;;;;;4982164;28;51162;-64
2021/09/23 02:08:20;;;;;;;;;18.75;18.75;;;;;;;;4991552;28;51154;-65
2021/09/23 02:10:46;;;;;;;;;20.25;19.00;;;;;;;;4991718;28;51828;-64
2021/09/23 02:13:11;;;;;;;;;19.50;18.75;;;;;;;;4998801;28;51056;-65
2021/09/23 02:15:36;;;;;;;;;18.50;17.00;;;;;;;;4990221;28;51094;-65
2021/09/23 02:18:02;;;;;;;;;15.50;15.25;;;;;;;;4992072;28;51132;-64
2021/09/23 02:20:27;;;;;;;;;19.75;18.00;;;;;;;;4991131;28;52924;-63
2021/09/23 02:22:52;;;;;;;;;18.00;17.25;;;;;;;;4992556;28;51162;-63
2021/09/23 02:25:17;;;;;;;;;16.50;16.50;;;;;;;;4991649;28;51344;-63
2021/09/23 02:27:42;;;;;;;;;17.75;16.00;;;;;;;;4992032;28;51163;-63
2021/09/23 02:30:08;;;;;;;;;16.50;16.50;;;;;;;;4992482;28;51098;-64
2021/09/23 02:32:34;;;;;;;;;17.50;16.50;;;;;;;;4992632;28;51188;-64
2021/09/23 02:34:59;;;;;;;;;18.50;18.00;;;;;;;;4992565;28;51531;-65
2021/09/23 02:37:25;;;;;;;;;12.75;12.75;;;;;;;;4996888;28;51277;-64
2021/09/23 02:39:51;;;;;;;;;16.75;16.00;;;;;;;;4991823;28;51897;-64
2021/09/23 02:42:16;;;;;;;;;14.25;14.25;;;;;;;;4991639;28;51254;-64
2021/09/23 02:44:41;;;;;;;;;16.00;15.75;;;;;;;;4992458;28;51078;-64
2021/09/23 02:47:07;;;;;;;;;20.50;18.25;;;;;;;;4992738;28;51232;-64
2021/09/23 02:49:32;;;;;;;;;7.25;7.25;;;;;;;;4993102;28;52002;-64
2021/09/23 02:51:58;;;;;;;;;21.25;18.75;;;;;;;;4993894;28;51272;-64
2021/09/23 02:54:23;;;;;;;;;18.25;17.00;;;;;;;;4985684;28;50809;-64
2021/09/23 02:56:49;;;;;;;;;20.50;19.00;;;;;;;;4994957;28;51220;-64
2021/09/23 02:59:14;;;;;;;;;17.25;15.75;;;;;;;;4994440;28;51843;-64
2021/09/23 03:01:39;;;;;;;;;19.25;18.25;;;;;;;;4995592;28;51063;-64
2021/09/23 03:04:04;;;;;;;;;17.50;16.25;;;;;;;;4994436;28;51081;-64
2021/09/23 03:06:29;;;;;;;;;22.75;19.00;;;;;;;;4994932;28;50903;-63
2021/09/23 03:08:55;;;;;;;;;19.75;17.75;;;;;;;;4993857;28;51147;-64
2021/09/23 03:11:20;;;;;;;;;20.25;19.25;;;;;;;;4985529;28;51366;-63
2021/09/23 03:13:45;;;;;;;;;18.75;17.25;;;;;;;;5251383;23;50902;-63
2021/09/23 03:16:10;;;;;;;;;20.50;19.25;;;;;;;;5013431;28;51117;-63
2021/09/23 03:18:35;;;;;;;;;20.00;18.75;;;;;;;;4996182;28;51660;-63
2021/09/23 03:21:03;;;;;;;;;20.00;18.50;;;;;;;;4997325;28;50923;-61
2021/09/23 03:23:28;;;;;;;;;17.50;17.00;;;;;;;;4995528;28;51146;-63
2021/09/23 03:25:53;;;;;;;;;20.50;19.75;;;;;;;;4997633;28;50955;-62
2021/09/23 03:28:19;;;;;;;;;22.25;21.25;;;;;;;;4998862;28;51893;-63
2021/09/23 03:30:44;;;;;;;;;19.75;19.50;;;;;;;;4998086;28;51016;-62
2021/09/23 03:33:09;;;;;;;;;28.50;21.75;;;;;;;;4995148;28;51004;-62
2021/09/23 03:35:36;;;;;;;;;16.00;16.00;;;;;;;;5007719;28;50989;-62
2021/09/23 03:38:01;;;;;;;;;21.50;21.50;;;;;;;;4996428;28;51171;-62
2021/09/23 03:40:26;;;;;;;;;21.25;19.25;;;;;;;;5011942;28;52781;-62
2021/09/23 03:42:52;;;;;;;;;22.00;22.00;;;;;;;;5013341;28;51141;-62
2021/09/23 03:45:17;;;;;;;;;18.75;18.75;;;;;;;;5002004;28;50914;-63
2021/09/23 03:47:42;;;;;;;;;22.25;22.00;;;;;;;;4994614;28;52765;-62
2021/09/23 03:50:08;;;;;;;;;24.00;21.75;;;;;;;;5006684;28;51089;-62
2021/09/23 03:52:33;;;;;;;;;21.50;19.50;;;;;;;;5012684;28;51228;-62
2021/09/23 03:54:59;;;;;;;;;27.25;27.00;;;;;;;;5013462;28;50963;-62
2021/09/23 03:57:26;;;;;;;;;24.75;24.00;;;;;;;;4995020;28;51160;-61
2021/09/23 03:59:52;;;;;;;;;21.00;20.50;;;;;;;;4997128;28;50818;-63
2021/09/23 04:02:17;;;;;;;;;22.75;21.00;;;;;;;;5000842;28;52736;-62
2021/09/23 04:04:42;;;;;;;;;19.00;19.00;;;;;;;;5014618;28;51291;-63
2021/09/23 04:07:08;;;;;;;;;24.00;23.00;;;;;;;;5013424;28;52761;-61
2021/09/23 04:09:33;;;;;;;;;22.25;21.25;;;;;;;;5010278;28;50985;-61
2021/09/23 04:11:58;;;;;;;;;22.25;21.75;;;;;;;;5008774;28;51349;-61
2021/09/23 04:14:23;;;;;;;;;25.00;21.25;;;;;;;;5006925;28;51173;-62
2021/09/23 04:16:50;;;;;;;;;20.75;19.75;;;;;;;;4993592;28;51967;-61
2021/09/23 04:19:15;;;;;;;;;25.50;24.00;;;;;;;;4983464;28;53118;-62
2021/09/23 04:21:41;;;;;;;;;22.75;21.50;;;;;;;;4986626;28;51231;-62
2021/09/23 04:24:06;;;;;;;;;19.75;18.50;;;;;;;;4992789;28;51334;-61
2021/09/23 04:26:31;;;;;;;;;19.00;18.50;;;;;;;;4994161;28;51282;-62
2021/09/23 04:28:56;;;;;;;;;26.00;25.00;;;;;;;;4992176;28;51094;-62
2021/09/23 04:31:22;;;;;;;;;22.25;21.50;;;;;;;;4993356;28;51066;-62
2021/09/23 04:33:47;;;;;;;;;25.25;23.00;;;;;;;;4994141;28;51043;-61
2021/09/23 04:36:12;;;;;;;;;25.25;24.00;;;;;;;;4993955;28;51743;-62
2021/09/23 04:38:37;;;;;;;;;24.50;24.00;;;;;;;;4994107;28;51144;-61
2021/09/23 04:41:02;;;;;;;;;23.50;21.25;;;;;;;;4992725;28;51280;-62
2021/09/23 04:43:28;;;;;;;;;23.25;22.75;;;;;;;;4994069;28;51010;-62
2021/09/23 04:45:53;;;;;;;;;26.25;24.75;;;;;;;;4991871;28;51724;-63
2021/09/23 04:48:18;;;;;;;;;26.75;24.75;;;;;;;;4991870;28;52406;-62
2021/09/23 04:50:43;;;;;;;;;24.50;22.75;;;;;;;;4981952;28;50945;-62
2021/09/23 04:53:09;;;;;;;;;26.50;24.75;;;;;;;;4992803;28;51341;-61
2021/09/23 04:55:34;;;;;;;;;21.25;21.25;;;;;;;;4993735;28;51994;-61
2021/09/23 04:58:00;;;;;;;;;22.00;19.25;;;;;;;;4992492;28;51297;-62
2021/09/23 05:00:25;;;;;;;;;26.00;25.25;;;;;;;;4993647;28;50900;-62
2021/09/23 05:02:51;;;;;;;;;50.75;39.50;;;;;;;;4992125;28;50916;-61
2021/09/23 05:05:16;;;;;;;;;29.00;28.00;;;;;;;;4993449;28;51625;-62
2021/09/23 05:07:41;;;;;;;;;22.75;22.00;;;;;;;;4988504;28;51008;-63
2021/09/23 05:10:07;;;;;;;;;26.50;24.50;;;;;;;;4993613;28;51114;-63
2021/09/23 05:12:32;;;;;;;;;27.50;24.00;;;;;;;;4993403;28;50930;-61
2021/09/23 05:14:57;;;;;;;;;23.50;23.00;;;;;;;;5003087;28;51271;-63
2021/09/23 05:17:22;;;;;;;;;25.50;23.75;;;;;;;;4991234;28;52434;-62
2021/09/23 05:19:47;;;;;;;;;24.00;23.25;;;;;;;;4993271;28;51172;-61
2021/09/23 05:22:13;;;;;;;;;25.25;24.75;;;;;;;;4993089;28;51429;-61
2021/09/23 05:24:38;;;;;;;;;24.50;23.25;;;;;;;;4992909;28;51308;-61
2021/09/23 05:27:04;;;;;;;;;21.50;20.00;;;;;;;;4992899;28;51220;-62
2021/09/23 05:29:29;;;;;;;;;20.50;20.50;;;;;;;;4993465;28;51110;-62
2021/09/23 05:31:54;;;;;;;;;25.00;23.50;;;;;;;;4987530;28;51162;-61
2021/09/23 05:34:20;;;;;;;;;28.00;25.50;;;;;;;;4992442;28;51056;-61
2021/09/23 05:36:45;;;;;;;;;25.75;24.50;;;;;;;;4993176;28;51089;-62
2021/09/23 05:39:10;;;;;;;;;23.25;22.50;;;;;;;;4987575;28;51019;-66
2021/09/23 05:41:41;;;;;;;;;25.00;24.00;;;;;;;;4989001;28;51146;-65
2021/09/23 05:44:06;;;;;;;;;23.75;21.00;;;;;;;;4983326;28;51198;-65
2021/09/23 05:46:31;;;;;;;;;23.00;21.75;;;;;;;;4992828;28;51348;-63
2021/09/23 05:48:56;;;;;;;;;24.75;23.00;;;;;;;;4991761;28;51073;-62
2021/09/23 05:51:21;;;;;;;;;23.50;22.50;;;;;;;;4992948;28;51032;-62
2021/09/23 05:53:47;;;;;;;;;26.00;23.25;;;;;;;;4992038;28;52422;-62
2021/09/23 05:56:12;;;;;;;;;18.75;18.75;;;;;;;;4991509;28;51018;-63
2021/09/23 05:58:38;;;;;;;;;25.75;22.75;;;;;;;;4992913;28;50819;-62
2021/09/23 06:01:03;;;;;;;;;26.50;25.25;;;;;;;;4992716;28;51066;-62
2021/09/23 06:03:28;;;;;;;;;22.50;20.75;;;;;;;;4987372;28;52213;-62
2021/09/23 06:05:53;;;;;;;;;24.50;23.00;;;;;;;;4988236;28;51194;-62
2021/09/23 06:08:19;;;;;;;;;25.00;24.75;;;;;;;;4991082;28;51349;-62
2021/09/23 06:10:44;;;;;;;;;19.75;19.00;;;;;;;;4992109;28;51043;-62
2021/09/23 06:13:09;;;;;;;;;21.75;20.00;;;;;;;;4993724;28;52730;-63
2021/09/23 06:15:34;;;;;;;;;22.50;21.25;;;;;;;;4991923;28;51373;-62
2021/09/23 06:18:00;;;;;;;;;24.00;21.75;;;;;;;;4991703;28;51125;-62
2021/09/23 06:20:25;;;;;;;;;25.25;23.00;;;;;;;;4992115;28;51420;-62
2021/09/23 06:22:51;;;;;;;;;22.75;21.75;;;;;;;;4994401;28;51210;-62
2021/09/23 06:25:16;;;;;;;;;17.50;16.50;;;;;;;;4994568;28;50994;-63
2021/09/23 06:27:42;;;;;;;;;26.00;24.25;;;;;;;;4994807;28;51062;-63
2021/09/23 06:30:07;;;;;;;;;25.75;25.75;;;;;;;;4994362;28;51178;-63
2021/09/23 06:32:32;;;;;;;;;28.25;24.75;;;;;;;;4991214;28;51619;-63
2021/09/23 06:34:58;;;;;;;;;28.00;24.50;;;;;;;;4992856;28;51102;-63
2021/09/23 06:37:23;;;;;;;;;22.50;21.00;;;;;;;;4991250;28;51007;-63
2021/09/23 06:39:48;;;;;;;;;22.75;21.25;;;;;;;;4987181;28;51224;-62
2021/09/23 06:42:16;;;;;;;;;26.50;24.25;;;;;;;;4994306;28;51743;-62
2021/09/23 06:44:41;;;;;;;;;27.75;24.00;;;;;;;;4995325;28;51022;-63
2021/09/23 06:47:06;;;;;;;;;21.00;20.75;;;;;;;;4994744;28;51177;-62
2021/09/23 06:49:31;;;;;;;;;25.50;23.75;;;;;;;;4986044;28;51259;-63
2021/09/23 06:51:57;;;;;;;;;32.75;28.50;;;;;;;;4994353;28;51915;-62
2021/09/23 06:54:22;;;;;;;;;29.25;24.75;;;;;;;;4994788;28;50869;-62
2021/09/23 06:56:47;;;;;;;;;23.75;22.00;;;;;;;;4995137;28;50933;-62
2021/09/23 06:59:12;;;;;;;;;24.50;24.00;;;;;;;;4995215;28;51098;-63
2021/09/23 07:01:38;;;;;;;;;25.00;23.00;;;;;;;;4994955;28;50927;-63
2021/09/23 07:04:03;;;;;;;;;22.25;22.25;;;;;;;;4994582;28;51093;-63
2021/09/23 07:06:28;;;;;;;;;24.25;21.25;;;;;;;;4995225;28;51094;-62
2021/09/23 07:08:53;;;;;;;;;21.75;21.25;;;;;;;;4994906;28;51050;-63
2021/09/23 07:11:19;;;;;;;;;23.75;23.25;;;;;;;;4994967;28;52034;-61
2021/09/23 07:13:44;;;;;;;;;25.50;24.00;;;;;;;;5003358;28;51041;-62
2021/09/23 07:16:10;;;;;;;;;23.25;22.25;;;;;;;;4994973;28;51042;-64
2021/09/23 07:18:36;;;;;;;;;25.75;22.25;;;;;;;;4993740;28;50928;-63
2021/09/23 07:21:01;;;;;;;;;19.25;19.25;;;;;;;;4992912;28;51067;-63
2021/09/23 07:23:27;;;;;;;;;23.75;21.50;;;;;;;;4994542;28;50921;-63
2021/09/23 07:25:53;;;;;;;;;25.50;24.25;;;;;;;;4994853;28;51060;-63
2021/09/23 07:28:18;;;;;;;;;26.75;24.00;;;;;;;;4994835;28;51283;-63
2021/09/23 07:30:43;;;;;;;;;27.00;27.00;;;;;;;;4994355;28;51163;-63
2021/09/23 07:33:09;;;;;;;;;26.25;24.50;;;;;;;;4992434;28;51060;-63
2021/09/23 07:35:34;;;;;;;;;26.50;26.00;;;;;;;;4993331;28;51167;-63
2021/09/23 07:38:00;;;;;;;;;20.75;20.75;;;;;;;;4997698;28;50802;-63
2021/09/23 07:40:26;;;;;;;;;27.00;25.00;;;;;;;;4994035;28;52341;-63
2021/09/23 07:42:52;;;;;;;;;20.75;20.75;;;;;;;;4994657;28;51157;-63
2021/09/23 07:45:17;;;;;;;;;22.25;20.75;;;;;;;;4994091;28;50972;-64
2021/09/23 07:47:42;;;;;;;;;24.00;22.00;;;;;;;;4994444;28;50964;-64
2021/09/23 07:50:08;;;;;;;;;23.75;21.00;;;;;;;;4993914;28;52121;-63
2021/09/23 07:52:33;;;;;;;;;24.25;20.75;;;;;;;;4993986;28;51094;-64
2021/09/23 07:54:58;;;;;;;;;23.75;22.75;;;;;;;;4994018;28;51075;-63
2021/09/23 07:57:24;;;;;;;;;17.75;17.25;;;;;;;;4994660;28;50839;-63
2021/09/23 07:59:49;;;;;;;;;23.00;23.00;;;;;;;;4993537;28;51048;-64
2021/09/23 08:02:14;;;;;;;;;23.50;23.50;;;;;;;;4991349;28;50940;-63
2021/09/23 08:04:39;;;;;;;;;16.25;15.25;;;;;;;;4977955;28;51137;-63
2021/09/23 08:07:04;;;;;;;;;23.25;23.25;;;;;;;;4993803;28;51372;-64
2021/09/23 08:09:30;;;;;;;;;27.75;24.50;;;;;;;;4993500;28;51836;-64
2021/09/23 08:11:55;;;;;;;;;22.50;21.75;;;;;;;;4994103;28;51024;-63
2021/09/23 08:14:20;;;;;;;;;22.00;22.00;;;;;;;;4996940;28;51245;-64
2021/09/23 08:16:48;;;;;;;;;23.75;22.50;;;;;;;;4993722;28;51369;-64
2021/09/23 08:19:13;;;;;;;;;24.75;22.50;;;;;;;;4993485;28;51146;-63
2021/09/23 08:21:38;;;;;;;;;27.75;26.50;;;;;;;;4993111;28;50987;-63
2021/09/23 08:24:04;;;;;;;;;26.50;25.00;;;;;;;;4993840;28;51069;-63
2021/09/23 08:26:29;;;;;;;;;26.50;23.00;;;;;;;;4993521;28;50907;-63
2021/09/23 08:28:55;;;;;;;;;22.50;22.00;;;;;;;;4993189;28;52232;-63
2021/09/23 08:31:21;;;;;;;;;27.75;27.00;;;;;;;;4993376;28;50861;-62
2021/09/23 08:33:47;;;;;;;;;23.25;22.75;;;;;;;;4992283;28;51120;-64
2021/09/23 08:36:12;;;;;;;;;24.00;22.67;;;;;;;;4993066;28;51416;-64
2021/09/23 08:38:38;;;;;;;;;23.00;21.75;;;;;;;;5001035;28;50841;-64
2021/09/23 08:41:03;;;;;;;;;20.75;20.50;;;;;;;;4992732;28;51003;-63
2021/09/23 08:43:29;;;;;;;;;18.75;18.00;;;;;;;;4993228;28;50952;-63
2021/09/23 08:45:55;;;;;;;;;20.25;18.75;;;;;;;;4992846;28;51110;-63
2021/09/23 08:48:21;;;;;;;;;20.00;20.00;;;;;;;;4993159;28;52723;-65
2021/09/23 08:50:47;;;;;;;;;19.25;19.25;;;;;;;;4992992;28;51152;-64
2021/09/23 08:53:12;;;;;;;;;18.50;17.50;;;;;;;;4992732;28;50989;-65
2021/09/23 08:55:37;;;;;;;;;18.00;17.75;;;;;;;;4993337;28;51005;-64
2021/09/23 08:58:04;;;;;;;;;18.33;17.67;;;;;;;;4993017;28;51071;-64
2021/09/23 09:00:30;;;;;;;;;18.33;15.33;;;;;;;;4993265;28;51055;-64
2021/09/23 09:03:05;;;;;;;;;16.00;15.00;;;;;;;;4991431;28;51011;-63
2021/09/23 09:05:31;;;;;;;;;16.00;15.00;;;;;;;;4992150;28;50913;-64
2021/09/23 09:08:05;;;;;;;;;14.00;14.00;;;;;;;;4992230;28;51993;-64
2021/09/23 09:10:30;;;;;;;;;25.75;23.50;;;;;;;;4992606;28;50971;-64
2021/09/23 09:12:58;;;;;;;;;19.00;18.50;;;;;;;;4996925;28;50892;-65
2021/09/23 09:15:34;;;;;;;;;15.00;14.00;;;;;;;;4993704;28;51058;-64
2021/09/23 09:18:16;;;;;;;;;15.33;14.33;;;;;;;;4992564;28;51848;-64
2021/09/23 09:20:55;;;;;;;;;17.00;15.67;;;;;;;;4992911;28;50971;-65
2021/09/23 09:23:21;;;;;;;;;14.33;14.00;;;;;;;;4992200;28;50999;-63
2021/09/23 09:25:47;;;;;;;;;15.25;15.25;;;;;;;;4992690;28;51062;-63
2021/09/23 09:28:15;;;;;;;;;16.75;16.50;;;;;;;;4991995;28;50979;-64
2021/09/23 09:30:41;;;;;;;;;13.25;13.25;;;;;;;;4992235;28;51020;-64
2021/09/23 09:33:06;;;;;;;;;18.00;17.25;;;;;;;;4987755;28;51073;-64
2021/09/23 09:35:34;;;;;;;;;14.50;14.50;;;;;;;;4990170;28;51650;-64
2021/09/23 09:38:01;;;;;;;;;15.25;15.25;;;;;;;;5002211;28;52077;-64
2021/09/23 09:40:29;;;;;;;;;13.00;13.00;;;;;;;;4991409;28;50926;-64
2021/09/23 09:42:55;;;;;;;;;14.33;14.00;;;;;;;;4992382;28;51092;-64
2021/09/23 09:45:22;;;;;;;;;17.00;16.00;;;;;;;;4992214;28;51310;-67
2021/09/23 09:47:53;;;;;;;;;19.00;17.25;;;;;;;;4992014;28;51591;-64
2021/09/23 09:50:23;;;;;;;;;15.75;14.75;;;;;;;;4991589;28;51075;-64
2021/09/23 09:53:00;;;;;;;;;15.50;13.75;;;;;;;;4991843;28;50846;-64
2021/09/23 09:55:26;;;;;;;;;14.25;14.25;;;;;;;;4992027;28;51195;-64
2021/09/23 09:57:52;;;;;;;;;15.00;14.75;;;;;;;;4994543;28;53363;-65
2021/09/23 10:00:18;;;;;;;;;16.25;16.25;;;;;;;;4985245;28;50888;-65
2021/09/23 10:02:43;;;;;;;;;16.00;16.00;;;;;;;;4996271;28;51097;-64
2021/09/23 10:05:12;;;;;;;;;13.75;13.00;;;;;;;;4995963;28;51148;-64
2021/09/23 10:07:38;;;;;;;;;14.75;14.00;;;;;;;;4993417;28;52735;-64
2021/09/23 10:10:04;;;;;;;;;18.75;18.75;;;;;;;;4983807;28;51184;-64
2021/09/23 10:12:30;;;;;;;;;16.25;16.25;;;;;;;;4988656;28;50981;-64
2021/09/23 10:14:55;;;;;;;;;16.75;16.50;;;;;;;;4995512;28;51328;-64
2021/09/23 10:17:21;;;;;;;;;16.50;15.50;;;;;;;;4994523;28;51747;-64
2021/09/23 10:19:47;;;;;;;;;20.50;15.75;;;;;;;;4995147;28;51006;-64
2021/09/23 10:22:13;;;;;;;;;15.25;15.25;;;;;;;;4995082;28;50931;-64
2021/09/23 10:24:40;;;;;;;;;14.00;13.50;;;;;;;;4995261;28;50959;-64
2021/09/23 10:27:57;;;;;;;;;16.75;16.50;;;;;;;;4994922;28;51114;-63
2021/09/23 10:29:51;;;;;;;;;18.25;18.25;;;;;;;;4994778;28;51078;-64
2021/09/23 10:32:16;;;;;;;;;18.00;17.50;;;;;;;;4994669;28;51190;-65
2021/09/23 10:34:42;;;;;;;;;16.75;16.75;;;;;;;;4995434;28;51126;-66
2021/09/23 10:37:07;;;;;;;;;9.67;9.67;;;;;;;;4996215;28;51106;-65
2021/09/23 10:39:34;;;;;;;;;14.00;14.00;;;;;;;;4993940;28;51218;-65
2021/09/23 10:42:00;;;;;;;;;11.67;11.67;;;;;;;;4994764;28;50833;-65
2021/09/23 10:44:26;;;;;;;;;12.00;11.00;;;;;;;;4994946;28;51106;-66
2021/09/23 10:46:52;;;;;;;;;14.00;13.33;;;;;;;;4985605;28;52832;-67
2021/09/23 10:49:20;;;;;;;;;14.67;14.67;;;;;;;;4985153;28;51188;-67
2021/09/23 10:51:45;;;;;;;;;13.00;11.75;;;;;;;;4994425;28;50829;-67
2021/09/23 10:54:12;;;;;;;;;13.00;12.33;;;;;;;;4988335;28;51302;-68
2021/09/23 10:56:39;;;;;;;;;15.50;14.50;;;;;;;;4994062;28;51959;-68
2021/09/23 10:59:05;;;;;;;;;15.00;14.25;;;;;;;;4993732;28;51583;-68
2021/09/23 11:01:33;;;;;;;;;18.25;17.75;;;;;;;;4993900;28;51092;-67
2021/09/23 11:04:00;;;;;;;;;19.00;18.00;;;;;;;;4992851;28;51311;-67
2021/09/23 11:06:31;;;;;;;;;16.75;16.25;;;;;;;;4993719;28;52754;-68
2021/09/23 11:08:56;;;;;;;;;16.50;15.75;;;;;;;;4993862;28;51043;-68
2021/09/23 11:11:23;;;;;;;;;18.75;18.25;;;;;;;;4994115;28;50987;-67
2021/09/23 11:13:49;;;;;;;;;17.00;17.00;;;;;;;;4999570;28;51260;-68
2021/09/23 11:16:17;;;;;;;;;20.25;18.50;;;;;;;;4992430;28;52841;-67
2021/09/23 11:18:43;;;;;;;;;17.00;17.00;;;;;;;;4993282;28;50875;-69
2021/09/23 11:21:09;;;;;;;;;18.50;18.00;;;;;;;;4992731;28;50872;-68
2021/09/23 11:23:35;;;;;;;;;14.50;14.50;;;;;;;;4993594;28;50908;-68
2021/09/23 11:26:02;;;;;;;;;17.25;16.50;;;;;;;;4991978;28;53550;-67
2021/09/23 11:28:27;;;;;;;;;17.00;16.00;;;;;;;;4992111;28;51164;-66
2021/09/23 11:30:54;;;;;;;;;17.00;15.00;;;;;;;;4993922;28;51216;-67
2021/09/23 11:33:23;;;;;;;;;13.25;13.00;;;;;;;;4992596;28;51387;-68
2021/09/23 11:35:49;;;;;;;;;11.50;11.50;;;;;;;;4992989;28;50953;-68
2021/09/23 11:38:18;;;;;;;;;12.00;11.50;;;;;;;;5005854;28;50956;-68
2021/09/23 11:40:45;;;;;;;;;15.50;14.25;;;;;;;;4980929;28;50988;-67
2021/09/23 11:43:12;;;;;;;;;15.75;15.75;;;;;;;;4994087;28;50827;-68
2021/09/23 11:45:38;;;;;;;;;14.50;14.25;;;;;;;;4993283;28;52289;-68
2021/09/23 11:48:09;;;;;;;;;13.33;12.67;;;;;;;;4993373;28;50988;-68
2021/09/23 11:50:44;;;;;;;;;13.00;13.00;;;;;;;;4988794;28;51138;-67
2021/09/23 11:53:12;;;;;;;;;14.25;13.50;;;;;;;;4993292;28;51299;-67
2021/09/23 11:55:41;;;;;;;;;13.00;13.00;;;;;;;;4993102;28;52866;-67
2021/09/23 11:58:11;;;;;;;;;15.50;14.25;;;;;;;;4993290;28;50937;-68
2021/09/23 12:00:41;;;;;;;;;15.75;15.75;;;;;;;;4993666;28;51127;-67
2021/09/23 12:03:07;;;;;;;;;19.00;18.00;;;;;;;;4993207;28;51031;-68
2021/09/23 12:05:32;;;;;;;;;16.00;15.67;;;;;;;;4993238;28;51900;-68
2021/09/23 12:08:06;;;;;;;;;15.67;15.00;;;;;;;;4992874;28;50940;-69
2021/09/23 12:10:31;;;;;;;;;13.33;13.33;;;;;;;;4993773;28;50914;-67
2021/09/23 12:12:58;;;;;;;;;16.33;15.67;;;;;;;;4994245;28;50935;-68
2021/09/23 12:15:24;;;;;;;;;16.75;16.75;;;;;;;;4993086;28;52413;-68
2021/09/23 12:17:56;;;;;;;;;18.50;18.00;;;;;;;;4993046;28;51017;-68
2021/09/23 12:20:36;;;;;;;;;15.75;15.75;;;;;;;;4991616;28;51117;-67
2021/09/23 12:23:17;;;;;;;;;19.00;17.75;;;;;;;;4991380;28;50980;-68
2021/09/23 12:25:42;;;;;;;;;16.00;15.50;;;;;;;;4992552;28;52015;-68
2021/09/23 12:28:07;;;;;;;;;18.00;17.50;;;;;;;;4992749;28;50932;-67
2021/09/23 12:30:35;;;;;;;;;17.67;17.33;;;;;;;;4993166;28;51054;-68
2021/09/23 12:33:02;;;;;;;;;19.25;17.25;;;;;;;;4993650;28;51262;-67
2021/09/23 12:35:28;;;;;;;;;20.75;17.25;;;;;;;;4988129;28;51130;-67
2021/09/23 12:37:53;;;;;;;;;21.25;19.75;;;;;;;;4982983;28;51072;-68
2021/09/23 12:40:19;;;;;;;;;19.75;19.50;;;;;;;;4993116;28;51194;-67
2021/09/23 12:42:44;;;;;;;;;19.25;16.75;;;;;;;;4993404;28;51371;-68
2021/09/23 12:45:17;;;;;;;;;15.75;15.75;;;;;;;;4992764;28;51014;-68
2021/09/23 12:47:52;;;;;;;;;19.00;17.50;;;;;;;;4993113;28;50929;-67
2021/09/23 12:50:22;;;;;;;;;16.67;15.67;;;;;;;;4990274;28;51156;-67
2021/09/23 12:52:48;;;;;;;;;21.25;20.25;;;;;;;;4992375;28;51038;-67
2021/09/23 12:55:25;;;;;;;;;15.25;14.75;;;;;;;;4982890;28;52000;-68
2021/09/23 12:57:57;;;;;;;;;18.67;17.00;;;;;;;;4979946;28;50983;-68
2021/09/23 13:00:29;;;;;;;;;18.25;18.25;;;;;;;;4992783;28;51163;-67
2021/09/23 13:03:07;;;;;;;;;17.67;17.00;;;;;;;;4992728;28;50896;-67
2021/09/23 13:05:33;;;;;;;;;18.75;18.75;;;;;;;;4992540;28;51791;-67
2021/09/23 13:07:58;;;;;;;;;20.25;18.25;;;;;;;;4992278;28;50961;-67
2021/09/23 13:10:34;;;;;;;;;15.67;15.67;;;;;;;;4992743;28;51084;-67
2021/09/23 13:13:03;;;;;;;;;17.25;17.25;;;;;;;;4988294;28;51190;-67
2021/09/23 13:15:31;;;;;;;;;18.50;18.50;;;;;;;;4991952;28;51907;-67
2021/09/23 13:18:02;;;;;;;;;13.67;13.00;;;;;;;;4992059;28;50967;-68
2021/09/23 13:20:29;;;;;;;;;14.67;14.33;;;;;;;;4992471;28;50847;-68
2021/09/23 13:22:55;;;;;;;;;12.00;12.00;;;;;;;;4992296;28;50958;-68
2021/09/23 13:25:21;;;;;;;;;19.00;19.00;;;;;;;;4990778;28;51990;-68
2021/09/23 13:27:46;;;;;;;;;18.50;16.75;;;;;;;;4992412;28;50966;-67
2021/09/23 13:30:14;;;;;;;;;17.00;17.00;;;;;;;;4992625;28;50956;-67
2021/09/23 13:32:39;;;;;;;;;18.33;17.33;;;;;;;;4991010;28;51037;-67
2021/09/23 13:35:05;;;;;;;;;17.00;16.33;;;;;;;;4991856;28;51806;-67
2021/09/23 13:37:30;;;;;;;;;15.33;15.33;;;;;;;;4991953;28;50915;-69
2021/09/23 13:39:56;;;;;;;;;16.33;13.67;;;;;;;;4992575;28;51178;-67
2021/09/23 13:42:22;;;;;;;;;16.33;14.67;;;;;;;;4990626;28;50997;-66
2021/09/23 13:44:47;;;;;;;;;13.00;12.67;;;;;;;;4992401;28;52043;-68
2021/09/23 13:47:12;;;;;;;;;15.00;15.00;;;;;;;;4992246;28;51082;-68
2021/09/23 13:49:38;;;;;;;;;13.67;13.33;;;;;;;;4992632;28;50968;-68
2021/09/23 13:52:03;;;;;;;;;16.00;16.00;;;;;;;;4991175;28;50946;-67
2021/09/23 13:54:28;;;;;;;;;15.33;15.33;;;;;;;;5002137;28;51199;-66
2021/09/23 13:56:53;;;;;;;;;15.00;15.00;;;;;;;;4981779;28;52721;-68
2021/09/23 13:59:19;;;;;;;;;14.67;14.67;;;;;;;;4992410;28;50925;-68
2021/09/23 14:01:46;;;;;;;;;16.50;16.50;;;;;;;;4992593;28;50898;-66
2021/09/23 14:04:11;;;;;;;;;19.25;18.25;;;;;;;;4992183;28;52588;-68
2021/09/23 14:06:36;;;;;;;;;16.75;16.50;;;;;;;;4990270;28;50953;-68
2021/09/23 14:09:01;;;;;;;;;15.75;15.00;;;;;;;;4991716;28;51063;-67
2021/09/23 14:11:27;;;;;;;;;16.00;15.75;;;;;;;;4990971;28;51077;-68